createdAt,value
2018-09-05T00:01:26.248Z,17.70
2018-09-05T00:03:54.843Z,16.33
2018-09-05T00:06:23.599Z,17.70
2018-09-05T00:08:52.165Z,15.77
2018-09-05T00:11:20.766Z,17.80
2018-09-05T00:13:49.601Z,16.60
2018-09-05T00:16:18.276Z,16.93
2018-09-05T00:18:46.952Z,17.77
2018-09-05T00:21:15.751Z,16.97
2018-09-05T00:23:44.314Z,18.47
2018-09-05T00:26:13.005Z,18.00
2018-09-05T00:28:41.649Z,18.17
2018-09-05T00:31:11.434Z,15.37
2018-09-05T00:33:40.551Z,16.70
2018-09-05T00:36:09.511Z,16.90
2018-09-05T00:38:38.122Z,18.17
2018-09-05T00:41:06.866Z,18.30
2018-09-05T00:43:35.535Z,18.13
2018-09-05T00:46:04.134Z,18.00
2018-09-05T00:48:32.698Z,17.07
2018-09-05T00:51:01.383Z,17.63
2018-09-05T00:53:30.035Z,17.93
2018-09-05T00:55:58.597Z,18.07
2018-09-05T00:58:27.245Z,16.60
2018-09-05T01:00:55.894Z,20.60
2018-09-05T01:03:24.551Z,17.90
2018-09-05T01:05:53.297Z,19.97
2018-09-05T01:08:21.934Z,18.10
2018-09-05T01:10:50.513Z,16.83
2018-09-05T01:13:19.478Z,17.53
2018-09-05T01:15:48.168Z,18.70
2018-09-05T01:18:16.770Z,17.17
2018-09-05T01:20:45.474Z,17.87
2018-09-05T01:23:14.047Z,17.80
2018-09-05T01:25:42.680Z,17.87
2018-09-05T01:28:11.396Z,16.80
2018-09-05T01:30:39.987Z,17.03
2018-09-05T01:33:08.623Z,16.53
2018-09-05T01:35:37.224Z,17.00
2018-09-05T01:38:05.856Z,18.60
2018-09-05T01:40:34.577Z,18.70
2018-09-05T01:43:03.447Z,16.93
2018-09-05T01:45:32.096Z,17.50
2018-09-05T01:48:00.738Z,18.37
2018-09-05T01:50:34.707Z,16.67
2018-09-05T01:53:03.320Z,18.60
2018-09-05T01:55:31.976Z,18.30
2018-09-05T01:58:00.686Z,18.33
2018-09-05T02:00:33.423Z,18.63
2018-09-05T02:03:02.794Z,19.20
2018-09-05T02:05:31.474Z,17.20
2018-09-05T02:08:01.372Z,15.97
2018-09-05T02:10:31.051Z,17.77
2018-09-05T02:12:59.931Z,17.37
2018-09-05T02:15:28.595Z,19.10
2018-09-05T02:17:57.199Z,19.90
2018-09-05T02:20:25.800Z,18.33
2018-09-05T02:22:54.419Z,18.20
2018-09-05T02:25:23.169Z,18.07
2018-09-05T02:27:51.880Z,19.20
2018-09-05T02:30:20.528Z,19.23
2018-09-05T02:32:49.356Z,18.70
2018-09-05T02:35:17.941Z,18.37
2018-09-05T02:37:46.608Z,19.50
2018-09-05T02:40:15.403Z,19.40
2018-09-05T02:42:44.068Z,19.33
2018-09-05T02:45:12.651Z,18.03
2018-09-05T02:47:41.262Z,18.70
2018-09-05T02:50:09.936Z,19.37
2018-09-05T02:52:38.688Z,19.33
2018-09-05T02:55:07.701Z,20.07
2018-09-05T02:57:36.746Z,20.50
2018-09-05T03:00:05.657Z,18.83
2018-09-05T03:02:34.360Z,19.30
2018-09-05T03:05:03.588Z,19.03
2018-09-05T03:07:32.569Z,20.23
2018-09-05T03:10:01.636Z,20.87
2018-09-05T03:12:30.210Z,19.10
2018-09-05T03:14:58.815Z,19.00
2018-09-05T03:17:27.703Z,18.60
2018-09-05T03:19:56.299Z,19.30
2018-09-05T03:22:24.891Z,21.10
2018-09-05T03:24:53.527Z,18.93
2018-09-05T03:27:22.125Z,19.90
2018-09-05T03:29:50.755Z,19.40
2018-09-05T03:32:19.901Z,17.43
2018-09-05T03:34:48.492Z,20.90
2018-09-05T03:37:17.156Z,20.40
2018-09-05T03:39:46.104Z,18.90
2018-09-05T03:42:14.751Z,20.03
2018-09-05T03:44:43.495Z,19.50
2018-09-05T03:47:12.181Z,19.77
2018-09-05T03:49:40.817Z,20.67
2018-09-05T03:52:09.515Z,19.43
2018-09-05T03:54:38.193Z,20.53
2018-09-05T03:57:06.854Z,19.07
2018-09-05T03:59:35.427Z,19.20
2018-09-05T04:02:04.150Z,17.93
2018-09-05T04:04:32.719Z,18.20
2018-09-05T04:07:01.339Z,18.90
2018-09-05T04:09:30.025Z,19.30
2018-09-05T04:11:58.629Z,19.80
2018-09-05T04:14:27.169Z,19.80
2018-09-05T04:16:55.941Z,19.27
2018-09-05T04:19:24.693Z,19.10
2018-09-05T04:21:53.258Z,18.30
2018-09-05T04:24:22.969Z,20.00
2018-09-05T04:26:51.603Z,20.60
2018-09-05T04:29:20.220Z,19.40
2018-09-05T04:31:48.872Z,19.23
2018-09-05T04:34:17.479Z,19.90
2018-09-05T04:36:46.068Z,20.03
2018-09-05T04:39:15.095Z,20.10
2018-09-05T04:41:43.745Z,19.27
2018-09-05T04:44:12.318Z,18.70
2018-09-05T04:46:41.159Z,19.83
2018-09-05T04:49:09.708Z,18.57
2018-09-05T04:51:38.280Z,21.73
2018-09-05T04:54:07.468Z,19.33
2018-09-05T04:56:36.076Z,18.50
2018-09-05T04:59:05.135Z,18.73
2018-09-05T05:01:34.051Z,20.50
2018-09-05T05:04:02.652Z,20.70
2018-09-05T05:06:31.208Z,18.30
2018-09-05T05:08:59.879Z,18.63
2018-09-05T05:11:28.469Z,20.73
2018-09-05T05:13:57.099Z,20.83
2018-09-05T05:16:25.753Z,19.77
2018-09-05T05:18:54.311Z,19.93
2018-09-05T05:21:22.867Z,20.33
2018-09-05T05:23:51.470Z,20.33
2018-09-05T05:26:20.020Z,17.57
2018-09-05T05:28:48.619Z,20.53
2018-09-05T05:31:17.291Z,19.10
2018-09-05T05:33:45.852Z,18.97
2018-09-05T05:36:15.299Z,22.23
2018-09-05T05:38:43.887Z,19.80
2018-09-05T05:41:12.467Z,21.10
2018-09-05T05:43:41.028Z,19.47
2018-09-05T05:46:10.136Z,19.97
2018-09-05T05:48:39.115Z,19.13
2018-09-05T05:51:08.052Z,19.97
2018-09-05T05:53:36.756Z,18.87
2018-09-05T05:56:05.332Z,19.37
2018-09-05T05:58:33.887Z,19.40
2018-09-05T06:01:02.845Z,17.90
2018-09-05T06:03:31.351Z,18.67
2018-09-05T06:05:59.992Z,19.90
2018-09-05T06:08:28.547Z,18.80
2018-09-05T06:10:57.087Z,18.67
2018-09-05T06:13:25.640Z,19.30
2018-09-05T06:15:59.131Z,21.13
2018-09-05T06:18:33.772Z,18.90
2018-09-05T06:21:06.662Z,19.77
2018-09-05T06:23:38.710Z,19.80
2018-09-05T06:26:10.628Z,19.67
2018-09-05T06:28:39.352Z,19.53
2018-09-05T06:31:08.024Z,20.10
2018-09-05T06:33:36.571Z,18.70
2018-09-05T06:36:08.740Z,21.17
2018-09-05T06:38:40.230Z,18.37
2018-09-05T06:41:08.780Z,17.87
2018-09-05T06:43:38.728Z,19.27
2018-09-05T06:46:09.119Z,19.03
2018-09-05T06:48:40.295Z,19.40
2018-09-05T06:51:10.440Z,19.97
2018-09-05T06:53:42.477Z,20.00
2018-09-05T06:56:11.970Z,19.90
2018-09-05T06:58:42.291Z,18.17
2018-09-05T07:01:11.748Z,18.90
2018-09-05T07:03:41.743Z,21.40
2018-09-05T07:06:12.987Z,19.57
2018-09-05T07:08:43.688Z,21.20
2018-09-05T07:11:14.648Z,20.97
2018-09-05T07:13:44.899Z,22.40
2018-09-05T07:16:13.564Z,19.53
2018-09-05T07:18:42.364Z,21.00
2018-09-05T07:21:11.053Z,20.90
2018-09-05T07:23:39.579Z,20.97
2018-09-05T07:26:08.283Z,20.80
2018-09-05T07:28:36.844Z,19.33
2018-09-05T07:31:05.436Z,20.77
2018-09-05T07:33:34.197Z,20.33
2018-09-05T07:36:02.796Z,19.77
2018-09-05T07:38:31.493Z,20.60
2018-09-05T07:41:00.339Z,18.23
2018-09-05T07:43:28.910Z,20.27
2018-09-05T07:45:57.455Z,19.10
2018-09-05T07:48:26.104Z,20.50
2018-09-05T07:50:54.725Z,20.43
2018-09-05T07:53:23.276Z,21.17
2018-09-05T07:55:51.888Z,20.60
2018-09-05T07:58:20.463Z,20.77
2018-09-05T08:00:49.023Z,21.10
2018-09-05T08:03:17.616Z,21.70
2018-09-05T08:05:46.168Z,21.23
2018-09-05T08:08:14.716Z,21.90
2018-09-05T08:10:43.383Z,22.33
2018-09-05T08:13:11.963Z,20.90
2018-09-05T08:15:40.520Z,21.83
2018-09-05T08:18:09.254Z,20.33
2018-09-05T08:20:37.791Z,20.90
2018-09-05T08:23:06.695Z,20.47
2018-09-05T08:25:35.655Z,19.53
2018-09-05T08:28:04.352Z,20.50
2018-09-05T08:30:32.923Z,21.90
2018-09-05T08:33:01.512Z,24.00
2018-09-05T08:35:30.336Z,25.50
2018-09-05T08:37:58.921Z,24.90
2018-09-05T08:40:27.436Z,26.10
2018-09-05T08:42:55.975Z,25.00
2018-09-05T08:45:24.872Z,25.50
2018-09-05T08:47:53.337Z,25.07
2018-09-05T08:50:21.835Z,25.83
2018-09-05T08:52:50.494Z,26.37
2018-09-05T08:55:19.185Z,23.43
2018-09-05T08:57:47.760Z,23.70
2018-09-05T09:00:16.311Z,23.73
2018-09-05T09:02:44.975Z,26.27
2018-09-05T09:05:13.536Z,23.43
2018-09-05T09:07:42.168Z,24.07
2018-09-05T09:10:10.959Z,24.67
2018-09-05T09:12:39.596Z,23.90
2018-09-05T09:15:08.180Z,25.30
2018-09-05T09:17:36.834Z,24.30
2018-09-05T09:20:05.423Z,23.03
2018-09-05T09:22:34.083Z,23.97
2018-09-05T09:25:02.663Z,24.83
2018-09-05T09:27:32.319Z,23.97
2018-09-05T09:30:01.467Z,24.10
2018-09-05T09:32:30.152Z,22.07
2018-09-05T09:34:58.749Z,22.10
2018-09-05T09:37:27.315Z,20.70
2018-09-05T09:39:56.354Z,21.57
2018-09-05T09:42:24.923Z,21.00
2018-09-05T09:44:53.487Z,21.60
2018-09-05T09:47:22.076Z,22.00
2018-09-05T09:49:50.648Z,21.83
2018-09-05T09:52:21.407Z,22.77
2018-09-05T09:54:51.517Z,21.23
2018-09-05T09:57:20.142Z,21.30
2018-09-05T09:59:48.743Z,19.13
2018-09-05T10:02:22.616Z,20.60
2018-09-05T10:04:56.580Z,21.53
2018-09-05T10:08:33.119Z,19.37
2018-09-05T10:11:05.879Z,19.53
2018-09-05T10:13:39.915Z,19.20
2018-09-05T10:16:13.584Z,19.50
2018-09-05T10:18:44.735Z,19.73
2018-09-05T10:21:13.324Z,18.93
2018-09-05T10:23:41.900Z,19.87
2018-09-05T10:26:10.464Z,18.30
2018-09-05T10:28:39.156Z,18.77
2018-09-05T10:31:07.724Z,20.43
2018-09-05T10:33:36.295Z,19.23
2018-09-05T10:36:05.247Z,19.63
2018-09-05T10:38:33.793Z,19.77
2018-09-05T10:41:02.432Z,20.23
2018-09-05T10:43:31.108Z,19.20
2018-09-05T10:45:59.731Z,19.50
2018-09-05T10:48:28.425Z,20.30
2018-09-05T10:50:57.103Z,19.43
2018-09-05T10:53:25.648Z,18.93
2018-09-05T10:55:54.247Z,20.53
2018-09-05T10:58:22.821Z,20.73
2018-09-05T11:00:51.376Z,20.30
2018-09-05T11:03:19.933Z,20.27
2018-09-05T11:05:48.616Z,20.17
2018-09-05T11:08:17.167Z,21.20
2018-09-05T11:10:45.784Z,21.73
2018-09-05T11:13:14.323Z,19.13
2018-09-05T11:15:45.744Z,22.03
2018-09-05T11:18:14.323Z,20.70
2018-09-05T11:20:42.912Z,20.83
2018-09-05T11:23:11.479Z,22.43
2018-09-05T11:25:40.147Z,19.50
2018-09-05T11:28:08.700Z,19.83
2018-09-05T11:30:37.318Z,19.77
2018-09-05T11:33:05.952Z,18.73
2018-09-05T11:35:34.497Z,17.97
2018-09-05T11:38:03.062Z,19.40
2018-09-05T11:40:31.711Z,18.90
2018-09-05T11:43:00.417Z,19.47
2018-09-05T11:45:28.971Z,20.30
2018-09-05T11:47:57.572Z,18.67
2018-09-05T11:50:26.139Z,18.30
2018-09-05T11:52:54.700Z,18.50
2018-09-05T11:55:23.479Z,19.10
2018-09-05T11:57:52.040Z,19.30
2018-09-05T12:00:20.619Z,19.90
2018-09-05T12:02:49.581Z,20.30
2018-09-05T12:05:18.147Z,19.07
2018-09-05T12:07:46.697Z,19.67
2018-09-05T12:10:15.371Z,17.50
2018-09-05T12:12:43.930Z,19.00
2018-09-05T12:15:12.507Z,19.60
2018-09-05T12:17:41.599Z,18.80
2018-09-05T12:20:10.164Z,19.50
2018-09-05T12:22:38.719Z,18.53
2018-09-05T12:25:07.519Z,19.30
2018-09-05T12:27:36.097Z,19.60
2018-09-05T12:30:04.699Z,18.13
2018-09-05T12:32:33.283Z,18.97
2018-09-05T12:35:01.844Z,18.20
2018-09-05T12:37:30.400Z,19.40
2018-09-05T12:39:58.991Z,17.60
2018-09-05T12:42:27.540Z,17.97
2018-09-05T12:44:56.088Z,18.13
2018-09-05T12:47:24.663Z,18.70
2018-09-05T12:49:53.203Z,18.40
2018-09-05T12:52:21.758Z,17.93
2018-09-05T12:54:50.751Z,15.77
2018-09-05T12:57:19.362Z,16.40
2018-09-05T12:59:47.907Z,15.90
2018-09-05T13:02:16.588Z,16.80
2018-09-05T13:04:45.183Z,15.53
2018-09-05T13:07:13.935Z,17.27
2018-09-05T13:09:42.891Z,15.77
2018-09-05T13:12:11.495Z,16.83
2018-09-05T13:14:40.047Z,15.20
2018-09-05T13:17:08.723Z,15.00
2018-09-05T13:20:05.036Z,16.43
2018-09-05T13:22:34.103Z,17.70
2018-09-05T13:25:02.732Z,17.07
2018-09-05T13:27:31.340Z,16.10
2018-09-05T13:29:59.931Z,16.53
2018-09-05T13:32:28.484Z,15.47
2018-09-05T13:34:57.048Z,18.03
2018-09-05T13:37:25.647Z,15.63
2018-09-05T13:39:54.208Z,17.53
2018-09-05T13:42:22.779Z,17.93
2018-09-05T13:44:51.739Z,16.40
2018-09-05T13:47:20.357Z,15.83
2018-09-05T13:49:48.905Z,16.30
2018-09-05T13:52:19.350Z,15.50
2018-09-05T13:54:47.923Z,16.13
2018-09-05T13:57:16.495Z,16.00
2018-09-05T13:59:45.736Z,16.10
2018-09-05T14:02:14.287Z,16.40
2018-09-05T14:04:42.860Z,15.27
2018-09-05T14:07:11.457Z,16.00
2018-09-05T14:09:40.017Z,15.20
2018-09-05T14:12:08.593Z,15.50
2018-09-05T14:14:37.415Z,14.60
2018-09-05T14:17:05.976Z,15.67
2018-09-05T14:19:34.543Z,15.40
2018-09-05T14:22:03.750Z,14.17
2018-09-05T14:24:32.388Z,14.50
2018-09-05T14:27:01.096Z,16.40
2018-09-05T14:29:30.288Z,15.73
2018-09-05T14:32:00.329Z,15.00
2018-09-05T14:34:29.915Z,16.10
2018-09-05T14:36:58.863Z,15.27
2018-09-05T14:39:27.421Z,15.77
2018-09-05T14:41:56.106Z,16.30
2018-09-05T14:44:24.667Z,15.90
2018-09-05T14:46:54.457Z,16.97
2018-09-05T14:49:24.100Z,17.83
2018-09-05T14:51:52.659Z,16.13
2018-09-05T14:54:21.224Z,17.47
2018-09-05T14:56:49.832Z,18.00
2018-09-05T14:59:21.595Z,17.40
2018-09-05T15:01:50.487Z,17.03
2018-09-05T15:04:19.811Z,17.07
2018-09-05T15:06:48.443Z,16.73
2018-09-05T15:09:17.121Z,18.63
2018-09-05T15:11:45.671Z,18.10
2018-09-05T15:14:14.675Z,18.30
2018-09-05T15:16:43.783Z,16.67
2018-09-05T15:19:12.376Z,17.60
2018-09-05T15:21:41.189Z,16.10
2018-09-05T15:24:10.959Z,17.03
2018-09-05T15:26:39.725Z,15.80
2018-09-05T15:29:08.272Z,15.90
2018-09-05T15:31:36.880Z,17.13
2018-09-05T15:34:05.565Z,15.30
2018-09-05T15:36:36.054Z,16.70
2018-09-05T15:39:06.451Z,16.10
2018-09-05T15:41:35.102Z,16.00
2018-09-05T15:44:03.739Z,16.57
2018-09-05T15:46:32.304Z,16.63
2018-09-05T15:49:00.876Z,16.03
2018-09-05T15:51:29.484Z,14.97
2018-09-05T15:53:58.181Z,16.90
2018-09-05T15:56:26.863Z,16.70
2018-09-05T15:58:55.875Z,16.83
2018-09-05T16:01:24.431Z,16.90
2018-09-05T16:03:55.288Z,15.93
2018-09-05T16:06:25.004Z,16.73
2018-09-05T16:08:54.013Z,15.63
2018-09-05T16:11:22.724Z,18.57
2018-09-05T16:13:52.062Z,16.57
2018-09-05T16:16:21.016Z,17.50
2018-09-05T16:18:49.808Z,16.67
2018-09-05T16:21:18.975Z,49.93
2018-09-05T16:23:47.837Z,19.00
2018-09-05T16:26:16.703Z,17.00
2018-09-05T16:28:45.764Z,16.50
2018-09-05T16:31:14.631Z,14.50
2018-09-05T16:33:43.713Z,26.73
2018-09-05T16:36:12.934Z,17.30
2018-09-05T16:38:41.791Z,18.27
2018-09-05T16:41:10.755Z,17.27
2018-09-05T16:43:39.347Z,16.93
2018-09-05T16:46:08.504Z,15.90
2018-09-05T16:48:37.152Z,16.40
2018-09-05T16:51:06.655Z,17.00
2018-09-05T16:53:35.373Z,15.80
2018-09-05T16:56:04.683Z,15.70
2018-09-05T16:58:33.791Z,16.77
2018-09-05T17:01:02.934Z,17.43
2018-09-05T17:03:31.871Z,17.20
2018-09-05T17:06:00.449Z,16.20
2018-09-05T17:08:29.187Z,15.90
2018-09-05T17:10:58.295Z,16.20
2018-09-05T17:13:27.219Z,14.70
2018-09-05T17:15:56.093Z,16.27
2018-09-05T17:18:25.070Z,17.67
2018-09-05T17:20:53.675Z,17.83
2018-09-05T17:23:22.378Z,18.47
2018-09-05T17:25:50.908Z,17.13
2018-09-05T17:28:19.793Z,16.27
2018-09-05T17:30:48.391Z,18.90
2018-09-05T17:33:17.012Z,17.93
2018-09-05T17:35:45.923Z,18.67
2018-09-05T17:38:14.572Z,19.83
2018-09-05T17:40:48.964Z,19.20
2018-09-05T17:43:17.531Z,20.27
2018-09-05T17:45:46.376Z,19.77
2018-09-05T17:48:15.115Z,18.87
2018-09-05T17:50:43.676Z,21.23
2018-09-05T17:53:12.224Z,17.07
2018-09-05T17:55:40.848Z,17.47
2018-09-05T17:58:09.400Z,19.27
2018-09-05T18:00:38.061Z,19.40
2018-09-05T18:03:06.667Z,19.90
2018-09-05T18:05:35.215Z,19.40
2018-09-05T18:08:03.768Z,21.17
2018-09-05T18:10:35.879Z,19.90
2018-09-05T18:13:04.635Z,18.80
2018-09-05T18:15:33.187Z,17.60
2018-09-05T18:18:01.780Z,17.80
2018-09-05T18:20:30.328Z,19.20
2018-09-05T18:22:58.883Z,18.10
2018-09-05T18:25:27.535Z,17.97
2018-09-05T18:27:56.096Z,18.47
2018-09-05T18:30:24.635Z,17.60
2018-09-05T18:32:53.554Z,21.47
2018-09-05T18:35:22.119Z,18.70
2018-09-05T18:37:50.663Z,18.10
2018-09-05T18:40:19.363Z,19.13
2018-09-05T18:42:47.903Z,17.70
2018-09-05T18:45:16.455Z,19.90
2018-09-05T18:47:45.322Z,21.40
2018-09-05T18:50:13.875Z,20.27
2018-09-05T18:52:42.433Z,17.73
2018-09-05T18:55:11.229Z,21.83
2018-09-05T18:57:39.795Z,22.27
2018-09-05T19:00:08.401Z,20.40
2018-09-05T19:02:37.315Z,19.97
2018-09-05T19:05:05.938Z,20.40
2018-09-05T19:07:34.483Z,20.20
2018-09-05T19:10:03.063Z,18.70
2018-09-05T19:12:31.654Z,18.23
2018-09-05T19:15:00.219Z,18.60
2018-09-05T19:17:28.874Z,19.47
2018-09-05T19:19:57.441Z,19.43
2018-09-05T19:22:26.018Z,17.90
2018-09-05T19:24:54.655Z,17.57
2018-09-05T19:27:23.281Z,18.90
2018-09-05T19:29:51.824Z,17.90
2018-09-05T19:32:20.408Z,17.20
2018-09-05T19:34:48.979Z,18.57
2018-09-05T19:37:17.600Z,18.13
2018-09-05T19:39:46.307Z,19.73
2018-09-05T19:42:14.865Z,18.27
2018-09-05T19:44:43.435Z,18.50
2018-09-05T19:47:12.096Z,17.63
2018-09-05T19:49:40.636Z,18.03
2018-09-05T19:52:09.740Z,18.87
2018-09-05T19:54:38.403Z,19.23
2018-09-05T19:57:06.984Z,19.27
2018-09-05T19:59:35.537Z,19.80
2018-09-05T20:02:04.167Z,18.70
2018-09-05T20:04:32.898Z,16.83
2018-09-05T20:07:01.446Z,19.07
2018-09-05T20:09:30.020Z,17.03
2018-09-05T20:11:58.576Z,18.17
2018-09-05T20:14:27.249Z,18.93
2018-09-05T20:16:56.093Z,17.60
2018-09-05T20:19:24.619Z,18.00
2018-09-05T20:21:53.685Z,19.40
2018-09-05T20:24:22.439Z,18.83
2018-09-05T20:26:51.012Z,18.27
2018-09-05T20:29:19.571Z,19.03
2018-09-05T20:31:48.599Z,18.20
2018-09-05T20:34:17.158Z,19.87
2018-09-05T20:36:45.789Z,21.40
2018-09-05T20:39:14.557Z,18.73
2018-09-05T20:41:43.105Z,21.23
2018-09-05T20:44:11.767Z,19.07
2018-09-05T20:46:40.695Z,18.60
2018-09-05T20:49:09.255Z,17.67
2018-09-05T20:51:37.820Z,19.10
2018-09-05T20:54:06.784Z,18.70
2018-09-05T20:56:35.360Z,18.33
2018-09-05T20:59:03.935Z,17.53
2018-09-05T21:01:32.846Z,18.00
2018-09-05T21:04:01.404Z,18.63
2018-09-05T21:06:30.024Z,17.87
2018-09-05T21:08:58.687Z,20.13
2018-09-05T21:11:27.248Z,19.73
2018-09-05T21:13:55.799Z,19.97
2018-09-05T21:16:24.451Z,20.13
2018-09-05T21:18:53.011Z,19.20
2018-09-05T21:21:21.575Z,20.00
2018-09-05T21:23:50.183Z,19.37
2018-09-05T21:26:18.738Z,19.73
2018-09-05T21:28:47.299Z,20.10
2018-09-05T21:31:15.887Z,21.50
2018-09-05T21:33:44.439Z,22.03
2018-09-05T21:36:13.076Z,20.37
2018-09-05T21:38:41.943Z,20.20
2018-09-05T21:41:10.511Z,19.77
2018-09-05T21:43:39.074Z,19.70
2018-09-05T21:46:07.704Z,19.57
2018-09-05T21:48:36.303Z,20.47
2018-09-05T21:51:04.917Z,22.90
2018-09-05T21:53:33.588Z,20.40
2018-09-05T21:56:02.532Z,21.50
2018-09-05T21:58:31.080Z,23.30
2018-09-05T22:00:59.703Z,20.13
2018-09-05T22:03:28.261Z,21.77
2018-09-05T22:05:56.814Z,20.90
2018-09-05T22:08:25.631Z,22.70
2018-09-05T22:10:54.255Z,20.00
2018-09-05T22:13:22.967Z,21.50
2018-09-05T22:15:51.620Z,19.70
2018-09-05T22:18:20.287Z,22.30
2018-09-05T22:20:48.839Z,20.77
2018-09-05T22:23:17.445Z,20.97
2018-09-05T22:25:46.027Z,22.03
2018-09-05T22:28:14.594Z,22.87
2018-09-05T22:30:43.287Z,22.33
2018-09-05T22:33:11.945Z,23.13
2018-09-05T22:35:40.508Z,23.90
2018-09-05T22:38:09.099Z,23.47
2018-09-05T22:40:42.874Z,25.30
2018-09-05T22:43:22.583Z,23.47
2018-09-05T22:46:02.351Z,22.67
2018-09-05T22:48:43.225Z,23.07
2018-09-05T22:51:56.600Z,23.73
2018-09-05T22:55:13.455Z,23.27
2018-09-05T23:07:45.505Z,23.40
2018-09-05T23:10:25.287Z,23.40
2018-09-05T23:13:05.356Z,24.00
2018-09-05T23:17:01.796Z,25.43
2018-09-05T23:19:43.236Z,23.67
2018-09-05T23:22:11.947Z,23.57
2018-09-05T23:24:40.508Z,23.13
2018-09-05T23:27:09.104Z,24.20
2018-09-05T23:29:37.668Z,24.47
2018-09-05T23:32:06.344Z,24.17
2018-09-05T23:34:35.008Z,25.30
2018-09-05T23:37:03.577Z,25.57
2018-09-05T23:39:32.145Z,25.13
2018-09-05T23:42:00.869Z,25.03
2018-09-05T23:44:29.453Z,23.00
2018-09-05T23:46:58.266Z,25.90
2018-09-05T23:49:27.005Z,24.73
2018-09-05T23:51:55.596Z,24.63
2018-09-05T23:54:24.185Z,25.90
2018-09-05T23:56:53.113Z,26.87
2018-09-05T23:59:21.677Z,24.60
